sensor_id;sensor_type;location;lat;lon;timestamp;temperature;humidity
6357;DHT22;3211;53.452;-2.264;2023-05-27T00:02:35;15.00;94.40
6357;DHT22;3211;53.452;-2.264;2023-05-27T00:05:17;15.00;81.80
6357;DHT22;3211;53.452;-2.264;2023-05-27T00:07:59;15.10;83.90
6357;DHT22;3211;53.452;-2.264;2023-05-27T00:10:41;15.10;79.10
6357;DHT22;3211;53.452;-2.264;2023-05-27T00:13:23;15.20;81.20
6357;DHT22;3211;53.452;-2.264;2023-05-27T00:16:06;15.30;82.80
6357;DHT22;3211;53.452;-2.264;2023-05-27T00:18:50;15.30;79.60
6357;DHT22;3211;53.452;-2.264;2023-05-27T00:21:33;15.40;76.50
6357;DHT22;3211;53.452;-2.264;2023-05-27T00:24:15;15.40;67.40
6357;DHT22;3211;53.452;-2.264;2023-05-27T00:26:57;15.40;64.50
6357;DHT22;3211;53.452;-2.264;2023-05-27T00:29:39;15.40;66.60
6357;DHT22;3211;53.452;-2.264;2023-05-27T00:32:21;15.40;66.60
6357;DHT22;3211;53.452;-2.264;2023-05-27T00:35:05;15.40;62.70
6357;DHT22;3211;53.452;-2.264;2023-05-27T00:37:47;15.40;65.80
6357;DHT22;3211;53.452;-2.264;2023-05-27T00:40:29;15.30;77.40
6357;DHT22;3211;53.452;-2.264;2023-05-27T00:43:11;15.30;68.60
6357;DHT22;3211;53.452;-2.264;2023-05-27T00:45:53;15.20;60.60
6357;DHT22;3211;53.452;-2.264;2023-05-27T00:48:36;15.30;56.90
6357;DHT22;3211;53.452;-2.264;2023-05-27T00:51:20;15.30;43.70
6357;DHT22;3211;53.452;-2.264;2023-05-27T00:54:02;15.30;54.90
6357;DHT22;3211;53.452;-2.264;2023-05-27T00:56:44;15.40;64.00
6357;DHT22;3211;53.452;-2.264;2023-05-27T00:59:27;15.30;61.30
6357;DHT22;3211;53.452;-2.264;2023-05-27T01:02:08;15.30;55.10
6357;DHT22;3211;53.452;-2.264;2023-05-27T01:04:51;15.30;50.20
6357;DHT22;3211;53.452;-2.264;2023-05-27T01:07:41;15.30;53.20
6357;DHT22;3211;53.452;-2.264;2023-05-27T01:10:29;15.30;60.50
6357;DHT22;3211;53.452;-2.264;2023-05-27T01:13:18;15.20;45.30
6357;DHT22;3211;53.452;-2.264;2023-05-27T01:16:03;15.30;55.40
6357;DHT22;3211;53.452;-2.264;2023-05-27T01:18:48;15.30;64.50
6357;DHT22;3211;53.452;-2.264;2023-05-27T01:21:31;15.20;58.40
6357;DHT22;3211;53.452;-2.264;2023-05-27T01:24:18;15.20;68.20
6357;DHT22;3211;53.452;-2.264;2023-05-27T01:27:01;15.20;71.50
6357;DHT22;3211;53.452;-2.264;2023-05-27T01:29:43;15.10;67.80
6357;DHT22;3211;53.452;-2.264;2023-05-27T01:32:29;15.00;65.00
6357;DHT22;3211;53.452;-2.264;2023-05-27T01:35:16;15.00;71.60
6357;DHT22;3211;53.452;-2.264;2023-05-27T01:38:01;15.00;69.70
6357;DHT22;3211;53.452;-2.264;2023-05-27T01:40:47;14.90;61.20
6357;DHT22;3211;53.452;-2.264;2023-05-27T01:43:30;14.90;79.60
6357;DHT22;3211;53.452;-2.264;2023-05-27T01:46:13;14.90;79.70
6357;DHT22;3211;53.452;-2.264;2023-05-27T01:48:55;14.80;85.80
6357;DHT22;3211;53.452;-2.264;2023-05-27T01:51:37;14.70;88.00
6357;DHT22;3211;53.452;-2.264;2023-05-27T01:54:19;14.70;90.40
6357;DHT22;3211;53.452;-2.264;2023-05-27T01:57:03;14.60;94.60
6357;DHT22;3211;53.452;-2.264;2023-05-27T01:59:46;14.40;98.80
6357;DHT22;3211;53.452;-2.264;2023-05-27T02:02:28;14.40;99.90
6357;DHT22;3211;53.452;-2.264;2023-05-27T02:05:12;14.30;99.90
6357;DHT22;3211;53.452;-2.264;2023-05-27T02:07:54;14.30;99.90
6357;DHT22;3211;53.452;-2.264;2023-05-27T02:10:35;14.20;99.90
6357;DHT22;3211;53.452;-2.264;2023-05-27T02:13:19;14.10;99.90
6357;DHT22;3211;53.452;-2.264;2023-05-27T02:16:01;14.00;99.90
6357;DHT22;3211;53.452;-2.264;2023-05-27T02:18:43;14.00;99.90
6357;DHT22;3211;53.452;-2.264;2023-05-27T02:21:25;13.90;99.90
6357;DHT22;3211;53.452;-2.264;2023-05-27T02:24:07;13.90;99.90
6357;DHT22;3211;53.452;-2.264;2023-05-27T02:26:49;13.90;99.90
6357;DHT22;3211;53.452;-2.264;2023-05-27T02:29:32;13.80;99.90
6357;DHT22;3211;53.452;-2.264;2023-05-27T02:32:14;13.70;99.90
6357;DHT22;3211;53.452;-2.264;2023-05-27T02:34:56;13.80;99.90
6357;DHT22;3211;53.452;-2.264;2023-05-27T02:37:38;13.80;99.90
6357;DHT22;3211;53.452;-2.264;2023-05-27T02:40:24;13.60;99.90
6357;DHT22;3211;53.452;-2.264;2023-05-27T02:43:06;13.60;99.90
6357;DHT22;3211;53.452;-2.264;2023-05-27T02:45:50;13.60;99.90
6357;DHT22;3211;53.452;-2.264;2023-05-27T02:48:32;13.60;99.90
6357;DHT22;3211;53.452;-2.264;2023-05-27T02:51:14;13.60;99.90
6357;DHT22;3211;53.452;-2.264;2023-05-27T02:53:55;13.50;99.90
6357;DHT22;3211;53.452;-2.264;2023-05-27T02:56:37;13.60;99.90
6357;DHT22;3211;53.452;-2.264;2023-05-27T02:59:19;13.50;99.90
6357;DHT22;3211;53.452;-2.264;2023-05-27T03:02:03;13.50;99.90
6357;DHT22;3211;53.452;-2.264;2023-05-27T03:04:45;13.40;99.90
6357;DHT22;3211;53.452;-2.264;2023-05-27T03:07:28;13.30;99.90
6357;DHT22;3211;53.452;-2.264;2023-05-27T03:10:10;13.30;99.90
6357;DHT22;3211;53.452;-2.264;2023-05-27T03:12:53;13.20;99.90
6357;DHT22;3211;53.452;-2.264;2023-05-27T03:15:35;13.20;99.90
6357;DHT22;3211;53.452;-2.264;2023-05-27T03:18:19;13.10;99.90
6357;DHT22;3211;53.452;-2.264;2023-05-27T03:21:01;13.00;99.90
6357;DHT22;3211;53.452;-2.264;2023-05-27T03:23:43;13.00;99.90
6357;DHT22;3211;53.452;-2.264;2023-05-27T03:26:25;13.00;99.90
6357;DHT22;3211;53.452;-2.264;2023-05-27T03:29:08;12.90;99.90
6357;DHT22;3211;53.452;-2.264;2023-05-27T03:31:50;12.80;99.90
6357;DHT22;3211;53.452;-2.264;2023-05-27T03:34:34;12.80;99.90
6357;DHT22;3211;53.452;-2.264;2023-05-27T03:37:15;12.80;99.90
6357;DHT22;3211;53.452;-2.264;2023-05-27T03:39:57;12.70;99.90
6357;DHT22;3211;53.452;-2.264;2023-05-27T03:42:39;12.70;99.90
6357;DHT22;3211;53.452;-2.264;2023-05-27T03:45:21;12.60;99.90
6357;DHT22;3211;53.452;-2.264;2023-05-27T03:48:03;12.60;99.90
6357;DHT22;3211;53.452;-2.264;2023-05-27T03:50:47;12.60;99.90
6357;DHT22;3211;53.452;-2.264;2023-05-27T03:53:29;12.50;99.90
6357;DHT22;3211;53.452;-2.264;2023-05-27T03:56:11;12.50;99.90
6357;DHT22;3211;53.452;-2.264;2023-05-27T03:58:52;12.50;99.90
6357;DHT22;3211;53.452;-2.264;2023-05-27T04:01:34;12.50;99.90
6357;DHT22;3211;53.452;-2.264;2023-05-27T04:04:16;12.50;99.90
6357;DHT22;3211;53.452;-2.264;2023-05-27T04:07:00;12.40;99.90
6357;DHT22;3211;53.452;-2.264;2023-05-27T04:09:42;12.40;99.90
6357;DHT22;3211;53.452;-2.264;2023-05-27T04:12:24;12.40;99.90
6357;DHT22;3211;53.452;-2.264;2023-05-27T04:15:07;12.30;99.90
6357;DHT22;3211;53.452;-2.264;2023-05-27T04:17:49;12.30;99.90
6357;DHT22;3211;53.452;-2.264;2023-05-27T04:20:35;12.30;99.90
6357;DHT22;3211;53.452;-2.264;2023-05-27T04:23:19;12.30;99.90
6357;DHT22;3211;53.452;-2.264;2023-05-27T04:26:00;12.30;99.90
6357;DHT22;3211;53.452;-2.264;2023-05-27T04:28:42;12.30;99.90
6357;DHT22;3211;53.452;-2.264;2023-05-27T04:31:25;12.30;99.90
6357;DHT22;3211;53.452;-2.264;2023-05-27T04:34:09;12.30;99.90
6357;DHT22;3211;53.452;-2.264;2023-05-27T04:36:51;12.30;99.90
6357;DHT22;3211;53.452;-2.264;2023-05-27T04:39:35;12.30;99.90
6357;DHT22;3211;53.452;-2.264;2023-05-27T04:42:17;12.30;99.90
6357;DHT22;3211;53.452;-2.264;2023-05-27T04:44:59;12.30;99.90
6357;DHT22;3211;53.452;-2.264;2023-05-27T04:47:42;12.30;99.90
6357;DHT22;3211;53.452;-2.264;2023-05-27T04:50:24;12.40;99.90
6357;DHT22;3211;53.452;-2.264;2023-05-27T04:53:06;12.40;99.90
6357;DHT22;3211;53.452;-2.264;2023-05-27T04:55:50;12.40;99.90
6357;DHT22;3211;53.452;-2.264;2023-05-27T04:58:32;12.30;99.90
6357;DHT22;3211;53.452;-2.264;2023-05-27T05:01:14;12.40;99.90
6357;DHT22;3211;53.452;-2.264;2023-05-27T05:03:58;12.50;99.90
6357;DHT22;3211;53.452;-2.264;2023-05-27T05:06:52;12.50;99.90
6357;DHT22;3211;53.452;-2.264;2023-05-27T05:09:36;12.60;99.90
6357;DHT22;3211;53.452;-2.264;2023-05-27T05:12:19;12.60;99.90
6357;DHT22;3211;53.452;-2.264;2023-05-27T05:15:01;12.60;99.90
6357;DHT22;3211;53.452;-2.264;2023-05-27T05:17:43;12.60;99.90
6357;DHT22;3211;53.452;-2.264;2023-05-27T05:20:25;12.60;99.90
6357;DHT22;3211;53.452;-2.264;2023-05-27T05:23:07;12.60;99.90
6357;DHT22;3211;53.452;-2.264;2023-05-27T05:25:50;12.60;99.90
6357;DHT22;3211;53.452;-2.264;2023-05-27T05:28:37;12.60;99.90
6357;DHT22;3211;53.452;-2.264;2023-05-27T05:31:19;12.70;99.90
6357;DHT22;3211;53.452;-2.264;2023-05-27T05:34:01;12.60;99.90
6357;DHT22;3211;53.452;-2.264;2023-05-27T05:36:43;12.60;99.90
6357;DHT22;3211;53.452;-2.264;2023-05-27T05:39:25;12.60;99.90
6357;DHT22;3211;53.452;-2.264;2023-05-27T05:42:07;12.70;99.90
6357;DHT22;3211;53.452;-2.264;2023-05-27T05:44:51;12.70;99.90
6357;DHT22;3211;53.452;-2.264;2023-05-27T05:47:33;12.60;99.90
6357;DHT22;3211;53.452;-2.264;2023-05-27T05:50:15;12.60;99.90
6357;DHT22;3211;53.452;-2.264;2023-05-27T05:52:57;12.60;99.90
6357;DHT22;3211;53.452;-2.264;2023-05-27T05:55:39;12.70;99.90
6357;DHT22;3211;53.452;-2.264;2023-05-27T05:58:21;13.00;99.90
6357;DHT22;3211;53.452;-2.264;2023-05-27T06:01:05;13.00;99.90
6357;DHT22;3211;53.452;-2.264;2023-05-27T06:03:47;13.00;99.90
6357;DHT22;3211;53.452;-2.264;2023-05-27T06:06:29;12.80;99.90
6357;DHT22;3211;53.452;-2.264;2023-05-27T06:09:11;12.80;99.90
6357;DHT22;3211;53.452;-2.264;2023-05-27T06:11:53;12.70;96.60
6357;DHT22;3211;53.452;-2.264;2023-05-27T06:14:35;12.80;95.90
6357;DHT22;3211;53.452;-2.264;2023-05-27T06:17:18;12.80;78.30
6357;DHT22;3211;53.452;-2.264;2023-05-27T06:20:00;12.90;63.30
6357;DHT22;3211;53.452;-2.264;2023-05-27T06:22:42;13.00;66.70
6357;DHT22;3211;53.452;-2.264;2023-05-27T06:25:25;13.10;50.10
6357;DHT22;3211;53.452;-2.264;2023-05-27T06:28:07;13.30;47.60
6357;DHT22;3211;53.452;-2.264;2023-05-27T06:30:49;13.30;36.20
6357;DHT22;3211;53.452;-2.264;2023-05-27T06:33:32;13.30;26.30
6357;DHT22;3211;53.452;-2.264;2023-05-27T06:36:14;13.00;24.20
6357;DHT22;3211;53.452;-2.264;2023-05-27T06:38:56;13.10;27.30
6357;DHT22;3211;53.452;-2.264;2023-05-27T06:41:39;13.20;22.50
6357;DHT22;3211;53.452;-2.264;2023-05-27T06:44:21;13.10;22.70
6357;DHT22;3211;53.452;-2.264;2023-05-27T06:47:04;13.30;29.40
6357;DHT22;3211;53.452;-2.264;2023-05-27T06:49:47;13.50;29.60
6357;DHT22;3211;53.452;-2.264;2023-05-27T06:52:29;13.50;24.90
6357;DHT22;3211;53.452;-2.264;2023-05-27T06:55:11;13.70;32.50
6357;DHT22;3211;53.452;-2.264;2023-05-27T06:57:53;13.80;30.00
6357;DHT22;3211;53.452;-2.264;2023-05-27T07:00:35;13.80;19.80
6357;DHT22;3211;53.452;-2.264;2023-05-27T07:03:17;13.80;14.70
6357;DHT22;3211;53.452;-2.264;2023-05-27T07:06:00;13.90;7.20
6357;DHT22;3211;53.452;-2.264;2023-05-27T07:08:42;13.90;8.50
6357;DHT22;3211;53.452;-2.264;2023-05-27T07:11:24;13.80;2.30
6357;DHT22;3211;53.452;-2.264;2023-05-27T07:14:07;13.80;1.00
6357;DHT22;3211;53.452;-2.264;2023-05-27T07:16:49;13.90;1.00
6357;DHT22;3211;53.452;-2.264;2023-05-27T07:19:32;14.00;1.00
6357;DHT22;3211;53.452;-2.264;2023-05-27T07:22:16;14.10;1.00
6357;DHT22;3211;53.452;-2.264;2023-05-27T07:24:58;14.10;1.00
6357;DHT22;3211;53.452;-2.264;2023-05-27T07:27:40;14.30;1.00
6357;DHT22;3211;53.452;-2.264;2023-05-27T07:30:21;14.30;1.00
6357;DHT22;3211;53.452;-2.264;2023-05-27T07:33:03;14.40;1.00
6357;DHT22;3211;53.452;-2.264;2023-05-27T07:35:45;14.30;1.00
6357;DHT22;3211;53.452;-2.264;2023-05-27T07:38:29;14.40;1.00
6357;DHT22;3211;53.452;-2.264;2023-05-27T07:41:13;14.40;1.00
6357;DHT22;3211;53.452;-2.264;2023-05-27T07:43:55;14.40;1.00
6357;DHT22;3211;53.452;-2.264;2023-05-27T07:46:37;14.50;1.00
6357;DHT22;3211;53.452;-2.264;2023-05-27T07:49:20;14.50;1.00
6357;DHT22;3211;53.452;-2.264;2023-05-27T07:52:05;14.50;1.00
6357;DHT22;3211;53.452;-2.264;2023-05-27T07:54:49;14.60;1.00
6357;DHT22;3211;53.452;-2.264;2023-05-27T07:57:31;14.60;1.00
6357;DHT22;3211;53.452;-2.264;2023-05-27T08:00:14;14.60;1.00
6357;DHT22;3211;53.452;-2.264;2023-05-27T08:02:56;14.60;1.00
6357;DHT22;3211;53.452;-2.264;2023-05-27T08:05:39;14.80;1.00
6357;DHT22;3211;53.452;-2.264;2023-05-27T08:08:21;14.80;1.00
6357;DHT22;3211;53.452;-2.264;2023-05-27T08:11:04;14.90;1.00
6357;DHT22;3211;53.452;-2.264;2023-05-27T08:13:47;15.00;1.00
6357;DHT22;3211;53.452;-2.264;2023-05-27T08:16:29;14.90;1.00
6357;DHT22;3211;53.452;-2.264;2023-05-27T08:19:11;14.90;1.00
6357;DHT22;3211;53.452;-2.264;2023-05-27T08:21:53;14.90;1.00
6357;DHT22;3211;53.452;-2.264;2023-05-27T08:24:36;15.00;1.00
6357;DHT22;3211;53.452;-2.264;2023-05-27T08:27:20;15.00;1.00
6357;DHT22;3211;53.452;-2.264;2023-05-27T08:30:03;15.20;1.00
6357;DHT22;3211;53.452;-2.264;2023-05-27T08:32:45;15.30;1.00
6357;DHT22;3211;53.452;-2.264;2023-05-27T08:35:27;15.40;1.00
6357;DHT22;3211;53.452;-2.264;2023-05-27T08:38:09;15.60;1.00
6357;DHT22;3211;53.452;-2.264;2023-05-27T08:40:52;15.60;1.00
6357;DHT22;3211;53.452;-2.264;2023-05-27T08:43:36;15.50;1.00
6357;DHT22;3211;53.452;-2.264;2023-05-27T08:46:19;15.60;1.00
6357;DHT22;3211;53.452;-2.264;2023-05-27T08:49:02;15.70;1.00
6357;DHT22;3211;53.452;-2.264;2023-05-27T08:51:45;15.90;1.00
6357;DHT22;3211;53.452;-2.264;2023-05-27T08:54:27;15.90;1.00
6357;DHT22;3211;53.452;-2.264;2023-05-27T08:57:12;16.10;1.00
6357;DHT22;3211;53.452;-2.264;2023-05-27T08:59:56;16.20;1.00
6357;DHT22;3211;53.452;-2.264;2023-05-27T09:02:39;16.30;1.00
6357;DHT22;3211;53.452;-2.264;2023-05-27T09:05:21;16.10;1.00
6357;DHT22;3211;53.452;-2.264;2023-05-27T09:08:03;16.30;1.00
6357;DHT22;3211;53.452;-2.264;2023-05-27T09:10:45;16.30;1.00
6357;DHT22;3211;53.452;-2.264;2023-05-27T09:13:28;16.40;1.00
6357;DHT22;3211;53.452;-2.264;2023-05-27T09:16:11;16.10;1.00
6357;DHT22;3211;53.452;-2.264;2023-05-27T09:18:53;16.30;1.00
6357;DHT22;3211;53.452;-2.264;2023-05-27T09:21:38;16.40;1.00
6357;DHT22;3211;53.452;-2.264;2023-05-27T09:24:22;16.70;1.00
6357;DHT22;3211;53.452;-2.264;2023-05-27T09:27:04;16.70;1.00
6357;DHT22;3211;53.452;-2.264;2023-05-27T09:29:46;16.60;1.00
6357;DHT22;3211;53.452;-2.264;2023-05-27T09:32:30;16.80;1.00
6357;DHT22;3211;53.452;-2.264;2023-05-27T09:35:14;16.80;1.00
6357;DHT22;3211;53.452;-2.264;2023-05-27T09:38:05;17.00;1.00
6357;DHT22;3211;53.452;-2.264;2023-05-27T09:40:47;17.10;1.00
6357;DHT22;3211;53.452;-2.264;2023-05-27T09:43:30;17.20;1.00
6357;DHT22;3211;53.452;-2.264;2023-05-27T09:46:14;16.90;1.00
6357;DHT22;3211;53.452;-2.264;2023-05-27T09:48:59;17.10;1.00
6357;DHT22;3211;53.452;-2.264;2023-05-27T09:51:41;17.10;1.00
6357;DHT22;3211;53.452;-2.264;2023-05-27T09:54:24;17.20;1.00
6357;DHT22;3211;53.452;-2.264;2023-05-27T09:57:06;17.10;1.00
6357;DHT22;3211;53.452;-2.264;2023-05-27T09:59:50;17.20;1.00
6357;DHT22;3211;53.452;-2.264;2023-05-27T10:02:34;17.20;1.00
6357;DHT22;3211;53.452;-2.264;2023-05-27T10:05:18;17.30;1.00
6357;DHT22;3211;53.452;-2.264;2023-05-27T10:08:01;17.50;1.00
6357;DHT22;3211;53.452;-2.264;2023-05-27T10:10:44;17.60;1.00
6357;DHT22;3211;53.452;-2.264;2023-05-27T10:13:27;17.60;1.00
6357;DHT22;3211;53.452;-2.264;2023-05-27T10:16:18;17.80;1.00
6357;DHT22;3211;53.452;-2.264;2023-05-27T10:19:01;17.90;1.00
6357;DHT22;3211;53.452;-2.264;2023-05-27T10:21:45;18.10;1.00
6357;DHT22;3211;53.452;-2.264;2023-05-27T10:24:31;18.10;1.00
6357;DHT22;3211;53.452;-2.264;2023-05-27T10:27:14;18.00;1.00
6357;DHT22;3211;53.452;-2.264;2023-05-27T10:29:59;18.30;1.00
6357;DHT22;3211;53.452;-2.264;2023-05-27T10:32:47;18.50;1.00
6357;DHT22;3211;53.452;-2.264;2023-05-27T10:35:39;18.50;1.00
6357;DHT22;3211;53.452;-2.264;2023-05-27T10:38:22;18.30;1.00
6357;DHT22;3211;53.452;-2.264;2023-05-27T10:41:06;18.70;1.00
6357;DHT22;3211;53.452;-2.264;2023-05-27T10:43:55;18.70;1.00
6357;DHT22;3211;53.452;-2.264;2023-05-27T10:46:39;18.50;1.00
6357;DHT22;3211;53.452;-2.264;2023-05-27T10:49:23;18.70;1.00
6357;DHT22;3211;53.452;-2.264;2023-05-27T10:52:08;18.90;1.00
6357;DHT22;3211;53.452;-2.264;2023-05-27T10:54:54;18.90;1.00
6357;DHT22;3211;53.452;-2.264;2023-05-27T10:57:38;19.30;1.00
6357;DHT22;3211;53.452;-2.264;2023-05-27T11:00:20;19.60;1.00
6357;DHT22;3211;53.452;-2.264;2023-05-27T11:03:16;19.70;1.00
6357;DHT22;3211;53.452;-2.264;2023-05-27T11:06:02;19.80;1.00
6357;DHT22;3211;53.452;-2.264;2023-05-27T11:08:44;19.60;1.00
6357;DHT22;3211;53.452;-2.264;2023-05-27T11:11:27;19.80;1.00
6357;DHT22;3211;53.452;-2.264;2023-05-27T11:14:09;19.90;1.00
6357;DHT22;3211;53.452;-2.264;2023-05-27T11:16:51;19.90;1.00
6357;DHT22;3211;53.452;-2.264;2023-05-27T11:19:33;19.90;1.00
6357;DHT22;3211;53.452;-2.264;2023-05-27T11:22:16;19.90;99.90
6357;DHT22;3211;53.452;-2.264;2023-05-27T11:24:59;19.90;1.00
6357;DHT22;3211;53.452;-2.264;2023-05-27T11:27:42;20.20;1.00
6357;DHT22;3211;53.452;-2.264;2023-05-27T11:30:25;20.60;1.00
6357;DHT22;3211;53.452;-2.264;2023-05-27T11:33:07;20.70;99.90
6357;DHT22;3211;53.452;-2.264;2023-05-27T11:35:49;20.60;1.00
6357;DHT22;3211;53.452;-2.264;2023-05-27T11:38:38;20.30;1.00
6357;DHT22;3211;53.452;-2.264;2023-05-27T11:41:21;20.60;1.00
6357;DHT22;3211;53.452;-2.264;2023-05-27T11:44:06;20.80;1.00
6357;DHT22;3211;53.452;-2.264;2023-05-27T11:46:49;20.90;1.00
6357;DHT22;3211;53.452;-2.264;2023-05-27T11:49:31;20.70;1.00
6357;DHT22;3211;53.452;-2.264;2023-05-27T11:52:13;21.10;1.00
6357;DHT22;3211;53.452;-2.264;2023-05-27T11:54:55;21.60;99.90
6357;DHT22;3211;53.452;-2.264;2023-05-27T11:57:37;21.30;99.90
6357;DHT22;3211;53.452;-2.264;2023-05-27T12:00:20;21.20;1.00
6357;DHT22;3211;53.452;-2.264;2023-05-27T12:03:02;21.70;99.90
6357;DHT22;3211;53.452;-2.264;2023-05-27T12:05:44;22.10;1.00
6357;DHT22;3211;53.452;-2.264;2023-05-27T12:08:26;22.60;99.90
6357;DHT22;3211;53.452;-2.264;2023-05-27T12:11:08;22.20;99.90
6357;DHT22;3211;53.452;-2.264;2023-05-27T12:13:50;21.70;99.90
6357;DHT22;3211;53.452;-2.264;2023-05-27T12:16:34;22.00;99.90
6357;DHT22;3211;53.452;-2.264;2023-05-27T12:19:16;21.90;99.90
6357;DHT22;3211;53.452;-2.264;2023-05-27T12:21:58;22.20;99.90
6357;DHT22;3211;53.452;-2.264;2023-05-27T12:24:40;22.50;99.90
6357;DHT22;3211;53.452;-2.264;2023-05-27T12:27:22;22.50;99.90
6357;DHT22;3211;53.452;-2.264;2023-05-27T12:30:04;22.30;1.00
6357;DHT22;3211;53.452;-2.264;2023-05-27T12:32:48;22.50;1.00
6357;DHT22;3211;53.452;-2.264;2023-05-27T12:35:30;22.30;99.90
6357;DHT22;3211;53.452;-2.264;2023-05-27T12:38:12;22.60;1.00
6357;DHT22;3211;53.452;-2.264;2023-05-27T12:40:54;23.20;99.90
6357;DHT22;3211;53.452;-2.264;2023-05-27T12:43:37;23.00;99.90
6357;DHT22;3211;53.452;-2.264;2023-05-27T12:46:19;22.80;99.90
6357;DHT22;3211;53.452;-2.264;2023-05-27T12:49:02;22.50;99.90
6357;DHT22;3211;53.452;-2.264;2023-05-27T12:51:44;22.50;99.90
6357;DHT22;3211;53.452;-2.264;2023-05-27T12:54:26;22.60;99.90
6357;DHT22;3211;53.452;-2.264;2023-05-27T12:57:08;22.20;99.90
6357;DHT22;3211;53.452;-2.264;2023-05-27T12:59:50;22.50;99.90
6357;DHT22;3211;53.452;-2.264;2023-05-27T13:02:32;22.50;99.90
6357;DHT22;3211;53.452;-2.264;2023-05-27T13:05:16;22.50;99.90
6357;DHT22;3211;53.452;-2.264;2023-05-27T13:07:59;23.00;99.90
6357;DHT22;3211;53.452;-2.264;2023-05-27T13:10:42;23.10;99.90
6357;DHT22;3211;53.452;-2.264;2023-05-27T13:13:24;23.40;99.90
6357;DHT22;3211;53.452;-2.264;2023-05-27T13:16:06;23.20;99.90
6357;DHT22;3211;53.452;-2.264;2023-05-27T13:18:49;23.20;99.90
6357;DHT22;3211;53.452;-2.264;2023-05-27T13:21:32;24.00;99.90
6357;DHT22;3211;53.452;-2.264;2023-05-27T13:24:14;24.10;99.90
6357;DHT22;3211;53.452;-2.264;2023-05-27T13:26:57;24.00;99.90
6357;DHT22;3211;53.452;-2.264;2023-05-27T13:29:40;23.80;99.90
6357;DHT22;3211;53.452;-2.264;2023-05-27T13:32:22;24.00;99.90
6357;DHT22;3211;53.452;-2.264;2023-05-27T13:35:05;24.20;99.90
6357;DHT22;3211;53.452;-2.264;2023-05-27T13:37:49;24.50;99.90
6357;DHT22;3211;53.452;-2.264;2023-05-27T13:40:31;24.00;99.90
6357;DHT22;3211;53.452;-2.264;2023-05-27T13:43:13;24.00;99.90
6357;DHT22;3211;53.452;-2.264;2023-05-27T13:45:55;24.60;99.90
6357;DHT22;3211;53.452;-2.264;2023-05-27T13:48:37;24.70;99.90
6357;DHT22;3211;53.452;-2.264;2023-05-27T13:51:23;25.20;99.90
6357;DHT22;3211;53.452;-2.264;2023-05-27T13:54:09;25.70;99.90
6357;DHT22;3211;53.452;-2.264;2023-05-27T13:56:53;25.90;99.90
6357;DHT22;3211;53.452;-2.264;2023-05-27T13:59:35;25.50;99.90
6357;DHT22;3211;53.452;-2.264;2023-05-27T14:02:18;25.00;99.90
6357;DHT22;3211;53.452;-2.264;2023-05-27T14:04:59;25.20;99.90
6357;DHT22;3211;53.452;-2.264;2023-05-27T14:07:42;25.50;99.90
6357;DHT22;3211;53.452;-2.264;2023-05-27T14:10:27;25.50;99.90
6357;DHT22;3211;53.452;-2.264;2023-05-27T14:13:10;25.50;99.90
6357;DHT22;3211;53.452;-2.264;2023-05-27T14:15:52;25.50;99.90
6357;DHT22;3211;53.452;-2.264;2023-05-27T14:18:35;26.00;99.90
6357;DHT22;3211;53.452;-2.264;2023-05-27T14:21:17;26.40;99.90
6357;DHT22;3211;53.452;-2.264;2023-05-27T14:23:59;26.10;99.90
6357;DHT22;3211;53.452;-2.264;2023-05-27T14:26:42;25.80;99.90
6357;DHT22;3211;53.452;-2.264;2023-05-27T14:29:25;26.30;99.90
6357;DHT22;3211;53.452;-2.264;2023-05-27T14:32:07;28.00;99.90
6357;DHT22;3211;53.452;-2.264;2023-05-27T14:34:49;28.90;99.90
6357;DHT22;3211;53.452;-2.264;2023-05-27T14:37:32;29.60;99.90
6357;DHT22;3211;53.452;-2.264;2023-05-27T14:40:14;30.60;99.90
6357;DHT22;3211;53.452;-2.264;2023-05-27T14:42:57;31.50;99.90
6357;DHT22;3211;53.452;-2.264;2023-05-27T14:45:40;32.90;99.90
6357;DHT22;3211;53.452;-2.264;2023-05-27T14:48:22;32.70;99.90
6357;DHT22;3211;53.452;-2.264;2023-05-27T14:51:04;32.00;99.90
6357;DHT22;3211;53.452;-2.264;2023-05-27T14:53:46;32.60;99.90
6357;DHT22;3211;53.452;-2.264;2023-05-27T14:56:28;32.50;99.90
6357;DHT22;3211;53.452;-2.264;2023-05-27T14:59:11;32.20;99.90
6357;DHT22;3211;53.452;-2.264;2023-05-27T15:01:53;32.90;99.90
6357;DHT22;3211;53.452;-2.264;2023-05-27T15:04:35;34.10;99.90
6357;DHT22;3211;53.452;-2.264;2023-05-27T15:07:17;34.70;99.90
6357;DHT22;3211;53.452;-2.264;2023-05-27T15:10:03;33.60;99.90
6357;DHT22;3211;53.452;-2.264;2023-05-27T15:12:46;32.90;99.90
6357;DHT22;3211;53.452;-2.264;2023-05-27T15:15:30;32.80;99.90
6357;DHT22;3211;53.452;-2.264;2023-05-27T15:18:12;32.80;99.90
6357;DHT22;3211;53.452;-2.264;2023-05-27T15:20:54;31.80;99.90
6357;DHT22;3211;53.452;-2.264;2023-05-27T15:23:36;32.30;99.90
6357;DHT22;3211;53.452;-2.264;2023-05-27T15:26:18;30.70;99.90
6357;DHT22;3211;53.452;-2.264;2023-05-27T15:29:00;32.70;99.90
6357;DHT22;3211;53.452;-2.264;2023-05-27T15:31:43;33.40;99.90
6357;DHT22;3211;53.452;-2.264;2023-05-27T15:34:25;30.50;99.90
6357;DHT22;3211;53.452;-2.264;2023-05-27T15:37:07;29.90;99.90
6357;DHT22;3211;53.452;-2.264;2023-05-27T15:39:50;31.60;99.90
6357;DHT22;3211;53.452;-2.264;2023-05-27T15:42:32;33.40;99.90
6357;DHT22;3211;53.452;-2.264;2023-05-27T15:45:14;34.60;99.90
6357;DHT22;3211;53.452;-2.264;2023-05-27T15:47:58;35.00;99.90
6357;DHT22;3211;53.452;-2.264;2023-05-27T15:50:40;34.70;99.90
6357;DHT22;3211;53.452;-2.264;2023-05-27T15:53:23;33.80;99.90
6357;DHT22;3211;53.452;-2.264;2023-05-27T15:56:05;33.40;99.90
6357;DHT22;3211;53.452;-2.264;2023-05-27T15:58:47;34.10;99.90
6357;DHT22;3211;53.452;-2.264;2023-05-27T16:01:29;33.70;99.90
6357;DHT22;3211;53.452;-2.264;2023-05-27T16:04:12;34.20;99.90
6357;DHT22;3211;53.452;-2.264;2023-05-27T16:06:54;34.40;99.90
6357;DHT22;3211;53.452;-2.264;2023-05-27T16:09:36;33.60;99.90
6357;DHT22;3211;53.452;-2.264;2023-05-27T16:12:18;33.70;99.90
6357;DHT22;3211;53.452;-2.264;2023-05-27T16:15:00;33.20;99.90
6357;DHT22;3211;53.452;-2.264;2023-05-27T16:17:42;32.90;99.90
6357;DHT22;3211;53.452;-2.264;2023-05-27T16:20:25;33.20;99.90
6357;DHT22;3211;53.452;-2.264;2023-05-27T16:23:07;33.80;99.90
6357;DHT22;3211;53.452;-2.264;2023-05-27T16:25:49;32.40;99.90
6357;DHT22;3211;53.452;-2.264;2023-05-27T16:28:33;31.00;99.90
6357;DHT22;3211;53.452;-2.264;2023-05-27T16:31:16;29.60;99.90
6357;DHT22;3211;53.452;-2.264;2023-05-27T16:33:59;27.70;99.90
6357;DHT22;3211;53.452;-2.264;2023-05-27T16:36:42;27.20;99.90
6357;DHT22;3211;53.452;-2.264;2023-05-27T16:39:24;26.40;99.90
6357;DHT22;3211;53.452;-2.264;2023-05-27T16:42:07;26.70;99.90
6357;DHT22;3211;53.452;-2.264;2023-05-27T16:44:49;26.40;99.90
6357;DHT22;3211;53.452;-2.264;2023-05-27T16:47:31;26.70;99.90
6357;DHT22;3211;53.452;-2.264;2023-05-27T16:50:14;26.20;99.90
6357;DHT22;3211;53.452;-2.264;2023-05-27T16:52:58;26.50;99.90
6357;DHT22;3211;53.452;-2.264;2023-05-27T16:55:40;26.40;99.90
6357;DHT22;3211;53.452;-2.264;2023-05-27T16:58:22;26.00;99.90
6357;DHT22;3211;53.452;-2.264;2023-05-27T17:01:05;26.20;99.90
6357;DHT22;3211;53.452;-2.264;2023-05-27T17:03:47;25.60;99.90
6357;DHT22;3211;53.452;-2.264;2023-05-27T17:06:29;25.30;99.90
6357;DHT22;3211;53.452;-2.264;2023-05-27T17:09:13;25.70;99.90
6357;DHT22;3211;53.452;-2.264;2023-05-27T17:11:56;25.10;99.90
6357;DHT22;3211;53.452;-2.264;2023-05-27T17:14:38;25.00;99.90
6357;DHT22;3211;53.452;-2.264;2023-05-27T17:17:21;25.10;99.90
6357;DHT22;3211;53.452;-2.264;2023-05-27T17:20:04;25.00;99.90
6357;DHT22;3211;53.452;-2.264;2023-05-27T17:22:47;24.40;99.90
6357;DHT22;3211;53.452;-2.264;2023-05-27T17:25:31;24.30;99.90
6357;DHT22;3211;53.452;-2.264;2023-05-27T17:28:13;24.40;99.90
6357;DHT22;3211;53.452;-2.264;2023-05-27T17:30:55;24.00;99.90